createdAt,value
2018-05-09T00:00:43.807Z,9.73
2018-05-09T00:03:10.431Z,10.90
2018-05-09T00:05:37.063Z,7.63
2018-05-09T00:08:02.964Z,14.97
2018-05-09T00:10:28.871Z,13.80
2018-05-09T00:12:54.783Z,11.83
2018-05-09T00:15:20.693Z,11.13
2018-05-09T00:17:46.599Z,8.20
2018-05-09T00:20:12.516Z,9.30
2018-05-09T00:22:38.427Z,11.43
2018-05-09T00:25:05.093Z,11.13
2018-05-09T00:27:30.989Z,8.60
2018-05-09T00:29:56.876Z,12.63
2018-05-09T00:32:22.782Z,11.13
2018-05-09T00:34:48.677Z,19.60
2018-05-09T00:37:14.588Z,11.00
2018-05-09T00:39:40.475Z,13.43
2018-05-09T00:42:07.108Z,9.47
2018-05-09T00:44:33.765Z,10.70
2018-05-09T00:46:59.663Z,11.67
2018-05-09T00:49:26.307Z,11.77
2018-05-09T00:51:52.985Z,11.47
2018-05-09T00:54:27.063Z,15.90
2018-05-09T00:56:53.715Z,11.50
2018-05-09T00:59:19.607Z,14.47
2018-05-09T01:01:46.290Z,13.77
2018-05-09T01:04:12.177Z,12.00
2018-05-09T01:06:38.832Z,15.23
2018-05-09T01:09:04.737Z,10.80
2018-05-09T01:11:31.382Z,12.87
2018-05-09T01:13:58.052Z,16.30
2018-05-09T01:16:23.950Z,15.63
2018-05-09T01:18:49.857Z,13.60
2018-05-09T01:21:16.499Z,14.43
2018-05-09T01:23:43.142Z,21.00
2018-05-09T01:26:09.049Z,14.23
2018-05-09T01:28:35.679Z,15.83
2018-05-09T01:31:02.318Z,14.23
2018-05-09T01:33:28.950Z,18.40
2018-05-09T01:35:55.617Z,11.63
2018-05-09T01:38:21.528Z,14.70
2018-05-09T01:40:48.170Z,16.00
2018-05-09T01:43:14.088Z,13.13
2018-05-09T01:45:40.730Z,16.13
2018-05-09T01:48:06.625Z,13.27
2018-05-09T01:50:32.529Z,11.63
2018-05-09T01:52:58.457Z,13.17
2018-05-09T01:55:24.370Z,18.90
2018-05-09T01:57:50.262Z,23.17
2018-05-09T02:00:16.141Z,18.67
2018-05-09T02:02:42.792Z,14.97
2018-05-09T02:05:08.694Z,17.30
2018-05-09T02:07:35.374Z,13.47
2018-05-09T02:10:01.265Z,13.53
2018-05-09T02:12:27.890Z,17.40
2018-05-09T02:15:01.653Z,12.03
2018-05-09T02:17:27.551Z,14.57
2018-05-09T02:19:53.451Z,9.77
2018-05-09T02:22:19.349Z,16.13
2018-05-09T02:24:45.252Z,11.47
2018-05-09T02:27:11.183Z,11.60
2018-05-09T02:29:37.089Z,16.37
2018-05-09T02:32:02.997Z,20.00
2018-05-09T02:34:28.972Z,17.10
2018-05-09T02:36:55.604Z,10.00
2018-05-09T02:39:22.243Z,13.70
2018-05-09T02:41:48.905Z,12.50
2018-05-09T02:44:14.813Z,13.30
2018-05-09T02:46:40.693Z,15.97
2018-05-09T02:49:06.589Z,18.97
2018-05-09T02:51:32.489Z,20.60
2018-05-09T02:53:58.460Z,16.83
2018-05-09T02:56:24.389Z,15.20
2018-05-09T02:58:50.272Z,20.10
2018-05-09T03:01:16.170Z,11.97
2018-05-09T03:03:42.078Z,12.37
2018-05-09T03:06:07.999Z,15.63
2018-05-09T03:08:33.919Z,12.90
2018-05-09T03:10:59.813Z,12.30
2018-05-09T03:13:25.701Z,14.47
2018-05-09T03:15:51.608Z,11.50
2018-05-09T03:18:17.498Z,15.30
2018-05-09T03:20:43.447Z,12.30
2018-05-09T03:23:09.355Z,14.93
2018-05-09T03:25:35.256Z,15.90
2018-05-09T03:28:01.897Z,11.67
2018-05-09T03:30:27.800Z,12.30
2018-05-09T03:32:54.453Z,13.60
2018-05-09T03:35:21.085Z,12.83
2018-05-09T03:37:46.974Z,16.00
2018-05-09T03:40:12.868Z,19.70
2018-05-09T03:42:38.753Z,12.90
2018-05-09T03:45:04.889Z,12.30
2018-05-09T03:47:30.788Z,14.57
2018-05-09T03:49:57.415Z,12.53
2018-05-09T03:52:23.326Z,13.40
2018-05-09T03:54:49.268Z,14.53
2018-05-09T03:57:15.929Z,17.13
2018-05-09T03:59:41.805Z,12.37
2018-05-09T04:02:20.163Z,14.03
2018-05-09T04:08:03.160Z,18.00
2018-05-09T04:10:29.061Z,12.97
2018-05-09T04:12:54.950Z,16.43
2018-05-09T04:15:20.863Z,11.47
2018-05-09T04:17:46.753Z,24.57
2018-05-09T04:20:13.418Z,18.80
2018-05-09T04:22:39.315Z,13.90
2018-05-09T04:25:05.945Z,12.37
2018-05-09T04:27:31.841Z,13.87
2018-05-09T04:29:57.734Z,15.70
2018-05-09T04:32:23.637Z,15.10
2018-05-09T04:34:49.537Z,16.30
2018-05-09T04:37:16.190Z,14.20
2018-05-09T04:39:42.108Z,21.33
2018-05-09T04:42:08.008Z,14.20
2018-05-09T04:44:34.665Z,22.20
2018-05-09T04:47:01.296Z,15.33
2018-05-09T04:49:27.938Z,18.23
2018-05-09T04:51:54.590Z,16.20
2018-05-09T04:54:20.496Z,18.00
2018-05-09T04:56:46.429Z,20.07
2018-05-09T04:59:12.317Z,16.60
2018-05-09T05:01:38.198Z,25.53
2018-05-09T05:04:04.117Z,19.03
2018-05-09T05:06:30.003Z,21.83
2018-05-09T05:08:56.133Z,18.13
2018-05-09T05:11:22.038Z,16.23
2018-05-09T05:13:48.783Z,19.07
2018-05-09T05:16:14.694Z,18.20
2018-05-09T05:18:41.335Z,13.77
2018-05-09T05:21:07.975Z,21.90
2018-05-09T05:23:34.604Z,19.73
2018-05-09T05:26:01.252Z,17.30
2018-05-09T05:28:27.913Z,19.50
2018-05-09T05:30:53.812Z,16.03
2018-05-09T05:33:20.458Z,21.30
2018-05-09T05:35:46.359Z,11.57
2018-05-09T05:38:12.996Z,16.63
2018-05-09T05:40:39.668Z,18.07
2018-05-09T05:43:05.594Z,13.07
2018-05-09T05:45:31.514Z,17.97
2018-05-09T05:47:57.395Z,32.27
2018-05-09T05:50:24.035Z,23.10
2018-05-09T05:52:50.672Z,14.07
2018-05-09T05:55:17.353Z,32.67
2018-05-09T05:57:43.275Z,21.00
2018-05-09T06:00:09.181Z,16.03
2018-05-09T06:02:35.102Z,17.37
2018-05-09T06:05:01.023Z,12.90
2018-05-09T06:07:26.938Z,15.87
2018-05-09T06:09:52.930Z,22.97
2018-05-09T06:12:19.578Z,15.67
2018-05-09T06:14:46.234Z,17.13
2018-05-09T06:17:12.146Z,27.00
2018-05-09T06:19:38.771Z,17.23
2018-05-09T06:22:05.427Z,21.00
2018-05-09T06:24:31.320Z,24.50
2018-05-09T06:26:57.264Z,16.17
2018-05-09T06:29:23.945Z,30.03
2018-05-09T06:31:49.833Z,30.00
2018-05-09T06:34:15.752Z,16.33
2018-05-09T06:36:41.640Z,34.20
2018-05-09T06:39:07.545Z,14.50
2018-05-09T06:41:33.537Z,13.23
2018-05-09T06:43:59.347Z,17.40
2018-05-09T06:46:25.269Z,16.73
2018-05-09T06:48:51.168Z,19.90
2018-05-09T06:51:17.814Z,14.23
2018-05-09T06:53:43.730Z,13.60
2018-05-09T06:56:10.374Z,23.13
2018-05-09T06:58:36.285Z,13.57
2018-05-09T07:01:02.944Z,29.23
2018-05-09T07:03:28.847Z,17.73
2018-05-09T07:05:54.770Z,19.60
2018-05-09T07:08:20.681Z,20.17
2018-05-09T07:10:47.348Z,13.03
2018-05-09T07:13:13.245Z,15.20
2018-05-09T07:15:39.882Z,11.67
2018-05-09T07:18:05.780Z,16.23
2018-05-09T07:20:31.681Z,16.00
2018-05-09T07:22:57.605Z,17.73
2018-05-09T07:25:23.502Z,13.10
2018-05-09T07:27:49.417Z,15.33
2018-05-09T07:30:15.371Z,13.70
2018-05-09T07:32:41.271Z,14.77
2018-05-09T07:35:07.178Z,17.83
2018-05-09T07:37:33.086Z,12.40
2018-05-09T07:39:58.972Z,21.17
2018-05-09T07:42:25.600Z,14.27
2018-05-09T07:44:51.528Z,22.67
2018-05-09T07:47:18.192Z,17.03
2018-05-09T07:49:44.120Z,12.87
2018-05-09T07:52:10.033Z,21.40
2018-05-09T07:54:35.936Z,19.60
2018-05-09T07:57:02.685Z,12.30
2018-05-09T07:59:29.329Z,13.07
2018-05-09T08:01:55.216Z,15.40
2018-05-09T08:04:21.125Z,15.17
2018-05-09T08:06:47.049Z,12.00
2018-05-09T08:09:12.977Z,18.43
2018-05-09T08:11:39.623Z,17.23
2018-05-09T08:14:05.548Z,8.17
2018-05-09T08:16:32.195Z,18.33
2018-05-09T08:18:58.841Z,15.30
2018-05-09T08:21:24.745Z,14.00
2018-05-09T08:23:51.395Z,10.10
2018-05-09T08:26:18.057Z,11.57
2018-05-09T08:28:43.953Z,13.20
2018-05-09T08:31:09.857Z,10.93
2018-05-09T08:33:35.782Z,12.27
2018-05-09T08:36:02.442Z,9.37
2018-05-09T08:38:28.357Z,10.20
2018-05-09T08:40:55.010Z,13.80
2018-05-09T08:43:21.016Z,7.83
2018-05-09T08:45:46.844Z,15.20
2018-05-09T08:48:12.757Z,7.43
2018-05-09T08:50:38.668Z,11.50
2018-05-09T08:53:05.325Z,11.90
2018-05-09T08:55:31.256Z,9.83
2018-05-09T08:57:57.145Z,8.97
2018-05-09T09:00:23.803Z,9.33
2018-05-09T09:02:49.723Z,12.17
2018-05-09T09:05:15.638Z,12.80
2018-05-09T09:07:42.307Z,9.73
2018-05-09T09:10:08.223Z,13.53
2018-05-09T09:12:34.152Z,9.20
2018-05-09T09:15:00.053Z,7.80
2018-05-09T09:17:25.981Z,7.40
2018-05-09T09:19:51.890Z,7.27
2018-05-09T09:22:17.793Z,10.93
2018-05-09T09:24:44.437Z,12.97
2018-05-09T09:27:11.079Z,8.60
2018-05-09T09:29:37.028Z,7.83
2018-05-09T09:32:02.927Z,9.63
2018-05-09T09:34:28.853Z,7.90
2018-05-09T09:36:56.543Z,10.10
2018-05-09T09:39:24.243Z,7.50
2018-05-09T09:41:51.968Z,8.53
2018-05-09T09:44:19.659Z,9.70
2018-05-09T09:46:54.470Z,11.37
2018-05-09T09:49:22.116Z,18.83
2018-05-09T09:51:49.811Z,7.00
2018-05-09T09:54:18.100Z,17.47
2018-05-09T09:56:45.843Z,33.97
2018-05-09T09:59:13.547Z,8.03
2018-05-09T10:01:41.259Z,6.77
2018-05-09T10:04:08.947Z,18.40
2018-05-09T10:06:36.643Z,13.77
2018-05-09T10:09:04.372Z,9.63
2018-05-09T10:11:30.290Z,7.40
2018-05-09T10:13:56.210Z,9.13
2018-05-09T10:16:24.046Z,18.13
2018-05-09T10:18:51.655Z,12.53
2018-05-09T10:21:19.388Z,6.93
2018-05-09T10:23:47.092Z,9.90
2018-05-09T10:26:14.818Z,9.00
2018-05-09T10:28:42.536Z,8.60
2018-05-09T10:31:10.235Z,9.37
2018-05-09T10:33:37.957Z,10.03
2018-05-09T10:36:05.702Z,12.10
2018-05-09T10:38:33.406Z,8.20
2018-05-09T10:41:01.112Z,6.80
2018-05-09T10:43:28.858Z,5.83
2018-05-09T10:45:56.579Z,9.73
2018-05-09T10:48:24.281Z,5.90
2018-05-09T10:50:52.076Z,7.30
2018-05-09T10:53:19.695Z,6.13
2018-05-09T10:55:47.388Z,7.40
2018-05-09T10:58:15.120Z,13.97
2018-05-09T11:00:42.816Z,8.13
2018-05-09T11:03:10.510Z,6.00
2018-05-09T11:05:38.211Z,4.20
2018-05-09T11:08:05.934Z,10.63
2018-05-09T11:10:33.786Z,9.57
2018-05-09T11:13:01.360Z,9.37
2018-05-09T11:15:29.053Z,9.27
2018-05-09T11:17:56.759Z,8.73
2018-05-09T11:20:23.404Z,10.47
2018-05-09T11:22:50.060Z,4.60
2018-05-09T11:25:17.756Z,6.70
2018-05-09T11:27:45.444Z,5.80
2018-05-09T11:30:11.380Z,13.17
2018-05-09T11:32:38.008Z,10.50
2018-05-09T11:35:03.923Z,7.70
2018-05-09T11:37:29.919Z,6.73
2018-05-09T11:39:56.501Z,9.33
2018-05-09T11:42:23.239Z,13.73
2018-05-09T11:44:49.913Z,8.40
2018-05-09T11:47:15.845Z,6.20
2018-05-09T11:49:41.794Z,16.77
2018-05-09T11:52:07.714Z,14.10
2018-05-09T11:54:33.647Z,8.17
2018-05-09T11:56:59.550Z,13.17
2018-05-09T11:59:26.085Z,14.13
2018-05-09T12:01:51.999Z,11.40
2018-05-09T12:04:17.896Z,25.93
2018-05-09T12:06:43.792Z,12.40
2018-05-09T12:09:09.710Z,16.10
2018-05-09T12:11:36.357Z,17.30
2018-05-09T12:14:02.264Z,16.90
2018-05-09T12:16:28.886Z,8.87
2018-05-09T12:18:55.538Z,9.97
2018-05-09T12:21:22.481Z,12.23
2018-05-09T12:23:48.386Z,10.13
2018-05-09T12:26:14.282Z,11.27
2018-05-09T12:28:40.163Z,21.90
2018-05-09T12:31:06.068Z,14.30
2018-05-09T12:33:32.691Z,20.03
2018-05-09T12:35:59.352Z,17.33
2018-05-09T12:38:25.242Z,16.63
2018-05-09T12:40:51.151Z,13.10
2018-05-09T12:43:17.055Z,9.97
2018-05-09T12:45:42.951Z,14.60
2018-05-09T12:48:08.875Z,15.13
2018-05-09T12:50:34.788Z,12.03
2018-05-09T12:53:00.723Z,11.43
2018-05-09T12:55:26.657Z,12.87
2018-05-09T12:57:52.544Z,9.23
2018-05-09T13:00:18.463Z,14.43
2018-05-09T13:02:44.349Z,11.80
2018-05-09T13:05:12.057Z,10.10
2018-05-09T13:07:39.768Z,5.80
2018-05-09T13:10:07.461Z,25.47
2018-05-09T13:12:35.201Z,10.10
2018-05-09T13:15:02.889Z,10.90
2018-05-09T13:17:28.804Z,15.87
2018-05-09T13:19:55.443Z,9.37
2018-05-09T13:22:22.089Z,7.30
2018-05-09T13:24:48.714Z,7.30
2018-05-09T13:27:15.366Z,12.80
2018-05-09T13:29:41.270Z,14.50
2018-05-09T13:32:07.900Z,9.13
2018-05-09T13:34:34.656Z,10.87
2018-05-09T13:37:00.551Z,9.23
2018-05-09T13:39:28.242Z,9.80
2018-05-09T13:41:54.132Z,8.83
2018-05-09T13:44:20.074Z,6.80
2018-05-09T13:46:47.791Z,8.33
2018-05-09T13:49:15.472Z,14.13
2018-05-09T13:51:43.150Z,7.40
2018-05-09T13:54:10.835Z,8.93
2018-05-09T13:56:38.529Z,12.50
2018-05-09T13:59:06.239Z,9.77
2018-05-09T14:01:33.928Z,12.70
2018-05-09T14:03:59.830Z,10.23
2018-05-09T14:06:26.475Z,5.87
2018-05-09T14:08:53.136Z,7.60
2018-05-09T14:11:20.880Z,16.20
2018-05-09T14:13:48.581Z,7.40
2018-05-09T14:16:16.285Z,8.50
2018-05-09T14:18:42.926Z,8.63
2018-05-09T14:21:09.559Z,11.60
2018-05-09T14:23:36.205Z,11.43
2018-05-09T14:26:02.836Z,7.63
2018-05-09T14:28:29.476Z,13.67
2018-05-09T14:30:56.130Z,10.93
2018-05-09T14:33:23.865Z,6.17
2018-05-09T14:35:51.581Z,16.37
2018-05-09T14:38:17.860Z,6.90
2018-05-09T14:40:45.557Z,12.13
2018-05-09T14:43:13.303Z,13.23
2018-05-09T14:45:39.948Z,14.00
2018-05-09T14:48:05.882Z,7.53
2018-05-09T14:50:31.780Z,12.20
2018-05-09T14:52:58.414Z,10.60
2018-05-09T14:55:25.061Z,10.83
2018-05-09T14:57:51.692Z,9.30
2018-05-09T15:00:18.393Z,11.23
2018-05-09T15:02:44.276Z,12.57
2018-05-09T15:05:10.195Z,6.30
2018-05-09T15:07:36.095Z,6.10
2018-05-09T15:10:02.747Z,6.50
2018-05-09T15:12:28.659Z,6.33
2018-05-09T15:14:54.561Z,10.00
2018-05-09T15:17:21.235Z,10.47
2018-05-09T15:19:47.245Z,7.70
2018-05-09T15:22:13.142Z,9.47
2018-05-09T15:24:39.797Z,10.10
2018-05-09T15:27:06.451Z,10.97
2018-05-09T15:29:32.385Z,14.43
2018-05-09T15:31:58.282Z,12.77
2018-05-09T15:34:24.190Z,8.20
2018-05-09T15:36:50.839Z,11.63
2018-05-09T15:39:16.744Z,9.87
2018-05-09T15:41:43.396Z,7.60
2018-05-09T15:44:09.308Z,17.50
2018-05-09T15:46:35.941Z,12.60
2018-05-09T15:49:02.578Z,11.77
2018-05-09T15:51:29.213Z,23.70
2018-05-09T15:53:55.869Z,9.90
2018-05-09T15:56:21.863Z,9.13
2018-05-09T15:58:48.518Z,15.37
2018-05-09T16:01:15.162Z,9.87
2018-05-09T16:03:41.852Z,18.90
2018-05-09T16:06:07.779Z,12.70
2018-05-09T16:08:33.676Z,7.07
2018-05-09T16:11:06.601Z,13.80
2018-05-09T16:13:32.503Z,16.80
2018-05-09T16:15:58.403Z,12.70
2018-05-09T16:18:24.310Z,10.03
2018-05-09T16:20:50.213Z,10.93
2018-05-09T16:23:16.964Z,13.57
2018-05-09T16:25:42.872Z,11.93
2018-05-09T16:28:08.775Z,10.93
2018-05-09T16:30:35.434Z,24.63
2018-05-09T16:33:01.347Z,13.23
2018-05-09T16:35:27.999Z,12.93
2018-05-09T16:37:53.931Z,9.73
2018-05-09T16:40:19.863Z,13.20
2018-05-09T16:42:45.776Z,13.80
2018-05-09T16:45:11.748Z,19.33
2018-05-09T16:47:37.577Z,14.37
2018-05-09T16:50:04.233Z,17.27
2018-05-09T16:52:30.155Z,18.07
2018-05-09T16:54:56.092Z,9.00
2018-05-09T16:57:21.982Z,17.53
2018-05-09T16:59:48.606Z,11.47
2018-05-09T17:02:14.509Z,12.37
2018-05-09T17:04:40.423Z,15.40
2018-05-09T17:07:06.321Z,22.27
2018-05-09T17:09:32.221Z,15.63
2018-05-09T17:11:58.112Z,11.60
2018-05-09T17:14:24.769Z,13.57
2018-05-09T17:16:50.676Z,14.40
2018-05-09T17:19:16.624Z,13.33
2018-05-09T17:21:56.682Z,15.73
2018-05-09T17:24:22.875Z,17.40
2018-05-09T17:26:49.530Z,14.77
2018-05-09T17:29:15.417Z,12.33
2018-05-09T17:31:41.324Z,14.97
2018-05-09T17:34:07.314Z,14.83
2018-05-09T17:36:33.225Z,11.03
2018-05-09T17:38:59.151Z,11.50
2018-05-09T17:41:25.068Z,21.53
2018-05-09T17:43:50.958Z,22.23
2018-05-09T17:46:17.605Z,12.10
2018-05-09T17:48:44.255Z,7.90
2018-05-09T17:51:10.189Z,13.63
2018-05-09T17:53:36.124Z,27.70
2018-05-09T17:56:02.051Z,22.70
2018-05-09T17:58:27.998Z,11.63
2018-05-09T18:00:53.945Z,22.67
2018-05-09T18:03:20.596Z,18.70
2018-05-09T18:05:46.514Z,17.17
2018-05-09T18:08:12.421Z,19.77
2018-05-09T18:10:39.161Z,21.47
2018-05-09T18:13:05.885Z,20.67
2018-05-09T18:15:31.839Z,17.57
2018-05-09T18:17:59.995Z,23.07
2018-05-09T18:20:27.017Z,13.50
2018-05-09T18:22:52.960Z,16.50
2018-05-09T18:25:19.610Z,23.03
2018-05-09T18:27:46.264Z,20.63
2018-05-09T18:30:12.188Z,19.73
2018-05-09T18:32:38.100Z,17.50
2018-05-09T18:35:04.020Z,27.73
2018-05-09T18:37:30.087Z,19.73
2018-05-09T18:39:56.115Z,31.57
2018-05-09T18:42:21.935Z,32.40
2018-05-09T18:44:47.955Z,31.90
2018-05-09T18:47:13.851Z,23.13
2018-05-09T18:49:39.766Z,19.80
2018-05-09T18:52:05.884Z,29.60
2018-05-09T18:54:31.800Z,31.40
2018-05-09T18:56:57.716Z,26.67
2018-05-09T18:59:23.617Z,25.70
2018-05-09T19:01:50.345Z,24.10
2018-05-09T19:04:16.280Z,25.17
2018-05-09T19:06:42.976Z,41.70
2018-05-09T19:09:08.926Z,39.30
2018-05-09T19:11:34.848Z,30.20
2018-05-09T19:14:00.795Z,33.70
2018-05-09T19:16:26.855Z,37.50
2018-05-09T19:18:52.685Z,36.33
2018-05-09T19:21:18.595Z,28.07
2018-05-09T19:23:44.544Z,32.37
2018-05-09T19:26:10.470Z,47.27
2018-05-09T19:28:36.428Z,32.00
2018-05-09T19:31:02.260Z,26.37
2018-05-09T19:33:28.165Z,29.47
2018-05-09T19:35:54.080Z,28.07
2018-05-09T19:38:20.725Z,22.30
2018-05-09T19:40:46.634Z,22.00
2018-05-09T19:43:13.298Z,39.43
2018-05-09T19:45:39.208Z,30.77
2018-05-09T19:48:05.100Z,35.23
2018-05-09T19:50:31.783Z,23.30
2018-05-09T19:52:57.687Z,26.03
2018-05-09T19:55:23.613Z,27.90
2018-05-09T19:57:49.528Z,24.73
2018-05-09T20:00:15.466Z,24.57
2018-05-09T20:02:41.387Z,27.53
2018-05-09T20:05:07.297Z,26.40
2018-05-09T20:07:33.239Z,34.63
2018-05-09T20:09:59.146Z,28.43
2018-05-09T20:12:25.044Z,31.33
2018-05-09T20:14:50.932Z,62.93
2018-05-09T20:17:16.842Z,56.87
2018-05-09T20:19:42.784Z,40.50
2018-05-09T20:22:09.426Z,43.93
2018-05-09T20:24:36.075Z,45.17
2018-05-09T20:27:02.716Z,54.50
2018-05-09T20:29:28.634Z,81.13
2018-05-09T20:32:06.993Z,40.03
2018-05-09T20:34:32.913Z,32.07
2018-05-09T20:36:58.833Z,22.70
2018-05-09T20:39:24.747Z,29.73
2018-05-09T20:41:50.646Z,20.90
2018-05-09T20:44:17.055Z,23.67
2018-05-09T20:46:43.709Z,26.43
2018-05-09T20:49:09.620Z,22.90
2018-05-09T20:51:48.609Z,20.00
2018-05-09T20:54:14.532Z,16.70
2018-05-09T20:56:40.433Z,20.20
2018-05-09T20:59:06.351Z,20.30
2018-05-09T21:01:44.695Z,23.23
2018-05-09T21:04:11.385Z,21.13
2018-05-09T21:06:37.307Z,15.80
2018-05-09T21:09:04.229Z,17.37
2018-05-09T21:11:30.100Z,18.80
2018-05-09T21:13:56.006Z,13.87
2018-05-09T21:16:21.943Z,18.07
2018-05-09T21:18:47.855Z,13.07
2018-05-09T21:21:13.794Z,16.63
2018-05-09T21:23:39.685Z,24.40
2018-05-09T21:26:05.649Z,16.43
2018-05-09T21:28:31.607Z,18.23
2018-05-09T21:30:57.472Z,16.70
2018-05-09T21:33:23.393Z,12.83
2018-05-09T21:35:49.273Z,19.80
2018-05-09T21:38:15.157Z,14.80
2018-05-09T21:40:41.835Z,17.00
2018-05-09T21:43:07.736Z,12.50
2018-05-09T21:45:33.649Z,21.47
2018-05-09T21:48:00.282Z,28.97
2018-05-09T21:50:26.925Z,30.60
2018-05-09T21:52:53.617Z,20.37
2018-05-09T21:55:19.535Z,25.30
2018-05-09T21:57:45.463Z,30.67
2018-05-09T22:00:11.431Z,23.80
2018-05-09T22:02:37.333Z,23.17
2018-05-09T22:05:03.984Z,21.43
2018-05-09T22:07:30.635Z,17.63
2018-05-09T22:09:56.556Z,19.30
2018-05-09T22:12:22.481Z,26.77
2018-05-09T22:14:48.494Z,20.67
2018-05-09T22:17:14.392Z,20.37
2018-05-09T22:19:41.036Z,21.80
2018-05-09T22:22:07.701Z,21.90
2018-05-09T22:24:33.619Z,31.60
2018-05-09T22:27:00.107Z,36.60
2018-05-09T22:29:26.042Z,35.17
2018-05-09T22:31:52.737Z,19.80
2018-05-09T22:34:18.640Z,36.03
2018-05-09T22:36:44.533Z,36.47
2018-05-09T22:39:11.148Z,22.80
2018-05-09T22:41:37.071Z,29.10
2018-05-09T22:44:02.972Z,29.63
2018-05-09T22:46:28.868Z,24.43
2018-05-09T22:48:56.023Z,26.53
2018-05-09T22:51:21.939Z,25.10
2018-05-09T22:53:47.842Z,31.03
2018-05-09T22:56:13.743Z,22.90
2018-05-09T22:58:40.394Z,20.40
2018-05-09T23:01:06.289Z,29.83
2018-05-09T23:03:32.186Z,29.83
2018-05-09T23:05:58.135Z,22.50
2018-05-09T23:08:24.784Z,21.13
2018-05-09T23:10:51.442Z,23.17
2018-05-09T23:13:17.387Z,23.23
2018-05-09T23:15:43.293Z,34.67
2018-05-09T23:18:09.208Z,22.60
2018-05-09T23:20:35.101Z,23.60
2018-05-09T23:23:01.762Z,26.10
2018-05-09T23:25:27.658Z,23.23
2018-05-09T23:27:54.312Z,22.30
2018-05-09T23:30:20.226Z,21.33
2018-05-09T23:32:46.905Z,27.20
2018-05-09T23:35:12.820Z,20.73
2018-05-09T23:37:38.699Z,23.23
2018-05-09T23:40:05.349Z,24.83
2018-05-09T23:42:31.263Z,20.53
2018-05-09T23:44:57.185Z,20.63
2018-05-09T23:47:23.101Z,26.00
2018-05-09T23:49:49.730Z,28.53
2018-05-09T23:52:16.541Z,25.07
2018-05-09T23:54:43.292Z,22.00
2018-05-09T23:57:09.222Z,27.13
2018-05-09T23:59:35.148Z,23.73
